RYR89DJ LERS-EICK
Flight info
| Callsign | RYR89DJ |
|---|---|
| Flight time | 1h 57m |
| Altitude | 36000 |
| Route | POSSY M601 BLV N75 DELOG DCT KOLEK DCT AMPOP DCT ARKIL DCT ERTER ERTER1R |
| Aircraft | B738/M-SDE2E3FGHIRWXY/LB1 |
Departure
| Time | 2026-05-01 13:19 |
|---|---|
| Airport | Reus Airport (LERS) |
Arrival
| Time | 2026-05-01 15:16 |
|---|---|
| Airport | Cork International Airport (EICK) |
| Time | Latitude | Longitude | Altitude | Speed | Heading |
|---|---|---|---|---|---|
| 2026-05-01 13:13 | 41.14565 | 1.15514 | 243 ft | 0 kts | 69° |
| 2026-05-01 13:14 | 41.14561 | 1.15552 | 243 ft | 7 kts | 129° |
| 2026-05-01 13:14 | 41.14517 | 1.15579 | 243 ft | 5 kts | 158° |
| 2026-05-01 13:14 | 41.14512 | 1.15582 | 243 ft | 0 kts | 158° |
| 2026-05-01 13:15 | 41.14511 | 1.15582 | 243 ft | 0 kts | 158° |
| 2026-05-01 13:17 | 41.14501 | 1.15587 | 243 ft | 8 kts | 160° |
| 2026-05-01 13:17 | 41.14430 | 1.15630 | 243 ft | 8 kts | 121° |
| 2026-05-01 13:18 | 41.14433 | 1.15664 | 243 ft | 0 kts | 69° |
| 2026-05-01 13:19 | 41.14457 | 1.15746 | 243 ft | 38 kts | 69° |
| 2026-05-01 13:19 | 41.14645 | 1.16396 | 243 ft | 110 kts | 69° |
| 2026-05-01 13:19 | 41.15368 | 1.18945 | 1118 ft | 167 kts | 73° |
| 2026-05-01 13:20 | 41.15731 | 1.20503 | 1791 ft | 181 kts | 76° |
| 2026-05-01 13:20 | 41.16171 | 1.22107 | 2445 ft | 194 kts | 68° |
| 2026-05-01 13:20 | 41.16757 | 1.23871 | 2716 ft | 226 kts | 64° |
| 2026-05-01 13:21 | 41.19778 | 1.25823 | 4134 ft | 270 kts | 357° |
| 2026-05-01 13:21 | 41.21557 | 1.25064 | 5280 ft | 274 kts | 331° |
| 2026-05-01 13:21 | 41.23091 | 1.23510 | 6128 ft | 281 kts | 320° |
| 2026-05-01 13:21 | 41.24519 | 1.21715 | 7031 ft | 284 kts | 316° |
| 2026-05-01 13:22 | 41.25917 | 1.19861 | 7923 ft | 286 kts | 315° |
| 2026-05-01 13:22 | 41.27225 | 1.17823 | 8696 ft | 293 kts | 307° |
| 2026-05-01 13:22 | 41.28407 | 1.15612 | 9664 ft | 292 kts | 304° |
| 2026-05-01 13:22 | 41.29559 | 1.13358 | 10438 ft | 298 kts | 303° |
| 2026-05-01 13:23 | 41.30752 | 1.11010 | 10813 ft | 318 kts | 303° |
| 2026-05-01 13:23 | 41.32026 | 1.08518 | 11013 ft | 342 kts | 304° |
| 2026-05-01 13:23 | 41.33393 | 1.05864 | 11592 ft | 350 kts | 304° |
| 2026-05-01 13:23 | 41.34788 | 1.03173 | 12272 ft | 357 kts | 304° |
| 2026-05-01 13:24 | 41.36212 | 1.00438 | 12982 ft | 361 kts | 304° |
| 2026-05-01 13:24 | 41.37648 | 0.97691 | 13800 ft | 363 kts | 304° |
| 2026-05-01 13:24 | 41.39102 | 0.94911 | 14444 ft | 369 kts | 304° |
| 2026-05-01 13:25 | 41.42052 | 0.89278 | 15863 ft | 373 kts | 303° |
| 2026-05-01 13:25 | 41.43546 | 0.86422 | 16513 ft | 377 kts | 303° |
| 2026-05-01 13:25 | 41.45052 | 0.83540 | 17164 ft | 381 kts | 303° |
| 2026-05-01 13:25 | 41.46573 | 0.80630 | 17856 ft | 384 kts | 303° |
| 2026-05-01 13:26 | 41.48102 | 0.77698 | 18492 ft | 388 kts | 302° |
| 2026-05-01 13:26 | 41.49649 | 0.74732 | 19059 ft | 390 kts | 303° |
| 2026-05-01 13:26 | 41.51203 | 0.71751 | 19668 ft | 392 kts | 302° |
| 2026-05-01 13:26 | 41.52762 | 0.68755 | 20271 ft | 394 kts | 302° |
| 2026-05-01 13:27 | 41.54331 | 0.65738 | 20833 ft | 397 kts | 302° |
| 2026-05-01 13:27 | 41.55910 | 0.62700 | 21375 ft | 400 kts | 303° |
| 2026-05-01 13:27 | 41.59104 | 0.56541 | 22461 ft | 406 kts | 303° |
| 2026-05-01 13:28 | 41.62339 | 0.50292 | 23535 ft | 412 kts | 302° |
| 2026-05-01 13:28 | 41.63974 | 0.47129 | 24001 ft | 415 kts | 302° |
| 2026-05-01 13:29 | 41.67266 | 0.40751 | 24897 ft | 419 kts | 302° |
| 2026-05-01 13:29 | 41.70590 | 0.34296 | 25732 ft | 424 kts | 302° |
| 2026-05-01 13:30 | 41.77317 | 0.21192 | 27320 ft | 433 kts | 302° |
| 2026-05-01 13:31 | 41.80739 | 0.14504 | 28065 ft | 438 kts | 302° |
| 2026-05-01 13:31 | 41.85934 | 0.04321 | 29102 ft | 444 kts | 302° |
| 2026-05-01 13:32 | 41.89438 | -0.02565 | 29772 ft | 449 kts | 302° |
| 2026-05-01 13:33 | 41.94740 | -0.13013 | 30756 ft | 452 kts | 302° |
| 2026-05-01 13:33 | 41.98264 | -0.19976 | 31497 ft | 450 kts | 302° |
| 2026-05-01 13:34 | 42.01781 | -0.26945 | 32153 ft | 450 kts | 302° |
| 2026-05-01 13:34 | 42.05286 | -0.33904 | 32826 ft | 449 kts | 302° |
| 2026-05-01 13:35 | 42.08783 | -0.40865 | 33480 ft | 448 kts | 302° |
| 2026-05-01 13:35 | 42.10525 | -0.44338 | 33807 ft | 448 kts | 302° |
| 2026-05-01 13:35 | 42.14003 | -0.51285 | 34396 ft | 447 kts | 302° |
| 2026-05-01 13:36 | 42.15736 | -0.54751 | 34689 ft | 445 kts | 302° |
| 2026-05-01 13:36 | 42.17463 | -0.58210 | 35011 ft | 443 kts | 302° |
| 2026-05-01 13:36 | 42.20886 | -0.65076 | 35606 ft | 440 kts | 301° |
| 2026-05-01 13:37 | 42.22589 | -0.68499 | 35859 ft | 439 kts | 301° |
| 2026-05-01 13:37 | 42.23714 | -0.70763 | 36044 ft | 438 kts | 301° |
| 2026-05-01 13:37 | 42.25409 | -0.74178 | 36190 ft | 439 kts | 301° |
| 2026-05-01 13:37 | 42.27116 | -0.77621 | 36176 ft | 443 kts | 301° |
| 2026-05-01 13:38 | 42.32315 | -0.88131 | 36177 ft | 453 kts | 301° |
| 2026-05-01 13:39 | 42.35816 | -0.95228 | 36169 ft | 454 kts | 301° |
| 2026-05-01 13:39 | 42.39321 | -1.02344 | 36169 ft | 454 kts | 301° |
| 2026-05-01 13:40 | 42.42817 | -1.09459 | 36158 ft | 454 kts | 301° |
| 2026-05-01 13:40 | 42.46301 | -1.16571 | 36159 ft | 452 kts | 301° |
| 2026-05-01 13:41 | 42.49772 | -1.23671 | 36155 ft | 451 kts | 301° |
| 2026-05-01 13:41 | 42.53222 | -1.30746 | 36155 ft | 450 kts | 301° |
| 2026-05-01 13:42 | 42.56664 | -1.37825 | 36161 ft | 449 kts | 301° |
| 2026-05-01 13:42 | 42.60093 | -1.44887 | 36165 ft | 447 kts | 301° |
| 2026-05-01 13:43 | 42.63506 | -1.51938 | 36178 ft | 446 kts | 302° |
| 2026-05-01 13:43 | 42.66903 | -1.58971 | 36180 ft | 445 kts | 302° |
| 2026-05-01 13:44 | 42.70274 | -1.65967 | 36190 ft | 445 kts | 302° |
| 2026-05-01 13:44 | 42.73655 | -1.72999 | 36189 ft | 444 kts | 302° |
| 2026-05-01 13:45 | 42.77032 | -1.80039 | 36176 ft | 444 kts | 302° |
| 2026-05-01 13:45 | 42.80394 | -1.87065 | 36175 ft | 443 kts | 302° |
| 2026-05-01 13:46 | 42.83749 | -1.94095 | 36152 ft | 442 kts | 302° |
| 2026-05-01 13:46 | 42.87092 | -2.01114 | 36144 ft | 441 kts | 302° |
| 2026-05-01 13:47 | 42.90425 | -2.08131 | 36126 ft | 441 kts | 302° |
| 2026-05-01 13:47 | 42.93752 | -2.15149 | 36123 ft | 440 kts | 302° |
| 2026-05-01 13:48 | 42.97069 | -2.22164 | 36116 ft | 439 kts | 302° |
| 2026-05-01 13:48 | 43.00382 | -2.29187 | 36120 ft | 440 kts | 302° |
| 2026-05-01 13:49 | 43.03693 | -2.36222 | 36111 ft | 440 kts | 302° |
| 2026-05-01 13:49 | 43.06982 | -2.43228 | 36123 ft | 441 kts | 301° |
| 2026-05-01 13:50 | 43.10294 | -2.50299 | 36115 ft | 441 kts | 301° |
| 2026-05-01 13:50 | 43.13604 | -2.57384 | 36119 ft | 442 kts | 301° |
| 2026-05-01 13:51 | 43.16918 | -2.64494 | 36101 ft | 443 kts | 301° |
| 2026-05-01 13:51 | 43.20233 | -2.71624 | 36106 ft | 444 kts | 301° |
| 2026-05-01 13:52 | 43.23549 | -2.78773 | 36100 ft | 445 kts | 301° |
| 2026-05-01 13:52 | 43.26868 | -2.85943 | 36101 ft | 446 kts | 301° |
| 2026-05-01 13:53 | 43.30402 | -2.92941 | 36101 ft | 448 kts | 310° |
| 2026-05-01 13:53 | 43.35126 | -2.98566 | 36113 ft | 452 kts | 322° |
| 2026-05-01 13:53 | 43.37683 | -3.01088 | 36108 ft | 453 kts | 322° |
| 2026-05-01 13:54 | 43.42818 | -3.06126 | 36094 ft | 454 kts | 322° |
| 2026-05-01 13:54 | 43.47927 | -3.11232 | 36102 ft | 454 kts | 321° |
| 2026-05-01 13:55 | 43.53015 | -3.16375 | 36101 ft | 454 kts | 321° |
| 2026-05-01 13:55 | 43.58074 | -3.21506 | 36109 ft | 455 kts | 321° |
| 2026-05-01 13:56 | 43.63174 | -3.26685 | 36107 ft | 455 kts | 321° |
| 2026-05-01 13:56 | 43.68278 | -3.31878 | 36114 ft | 456 kts | 321° |
| 2026-05-01 13:57 | 43.73374 | -3.37115 | 36112 ft | 457 kts | 321° |
| 2026-05-01 13:57 | 43.78471 | -3.42378 | 36120 ft | 457 kts | 321° |
| 2026-05-01 13:58 | 43.83581 | -3.47650 | 36123 ft | 458 kts | 321° |
| 2026-05-01 13:58 | 43.88703 | -3.52908 | 36126 ft | 459 kts | 321° |
| 2026-05-01 13:59 | 43.93830 | -3.58181 | 36128 ft | 459 kts | 321° |
| 2026-05-01 13:59 | 43.98958 | -3.63470 | 36135 ft | 460 kts | 320° |
| 2026-05-01 14:00 | 44.04090 | -3.68778 | 36137 ft | 460 kts | 320° |
| 2026-05-01 14:00 | 44.09230 | -3.74106 | 36139 ft | 460 kts | 320° |
| 2026-05-01 14:01 | 44.14366 | -3.79442 | 36141 ft | 461 kts | 320° |
| 2026-05-01 14:01 | 44.19506 | -3.84794 | 36144 ft | 461 kts | 320° |
| 2026-05-01 14:02 | 44.24646 | -3.90159 | 36146 ft | 462 kts | 320° |
| 2026-05-01 14:02 | 44.29794 | -3.95542 | 36144 ft | 463 kts | 320° |
| 2026-05-01 14:03 | 44.35234 | -4.00385 | 36147 ft | 468 kts | 333° |
| 2026-05-01 14:03 | 44.41230 | -4.03955 | 36150 ft | 469 kts | 335° |
| 2026-05-01 14:04 | 44.47270 | -4.07437 | 36155 ft | 470 kts | 334° |
| 2026-05-01 14:04 | 44.52286 | -4.10382 | 36159 ft | 470 kts | 334° |
| 2026-05-01 14:05 | 44.59280 | -4.14559 | 36161 ft | 470 kts | 334° |
| 2026-05-01 14:05 | 44.65297 | -4.18182 | 36165 ft | 471 kts | 334° |
| 2026-05-01 14:06 | 44.71320 | -4.21816 | 36162 ft | 471 kts | 333° |
| 2026-05-01 14:06 | 44.77361 | -4.25424 | 36172 ft | 472 kts | 334° |
| 2026-05-01 14:07 | 44.83463 | -4.28861 | 36178 ft | 473 kts | 335° |
| 2026-05-01 14:08 | 44.92638 | -4.33990 | 36171 ft | 473 kts | 335° |
| 2026-05-01 14:08 | 44.98750 | -4.37447 | 36176 ft | 473 kts | 335° |
| 2026-05-01 14:09 | 45.04863 | -4.40925 | 36176 ft | 474 kts | 335° |
| 2026-05-01 14:09 | 45.10983 | -4.44419 | 36183 ft | 474 kts | 335° |
| 2026-05-01 14:10 | 45.17103 | -4.47919 | 36185 ft | 474 kts | 334° |
| 2026-05-01 14:10 | 45.23222 | -4.51426 | 36181 ft | 475 kts | 334° |
| 2026-05-01 14:11 | 45.29348 | -4.54945 | 36185 ft | 475 kts | 334° |
| 2026-05-01 14:11 | 45.38540 | -4.60240 | 36193 ft | 475 kts | 334° |
| 2026-05-01 14:12 | 45.44630 | -4.63759 | 36195 ft | 475 kts | 334° |
| 2026-05-01 14:12 | 45.50757 | -4.67308 | 36194 ft | 476 kts | 334° |
| 2026-05-01 14:13 | 45.55896 | -4.70290 | 36197 ft | 476 kts | 334° |
| 2026-05-01 14:13 | 45.63025 | -4.74438 | 36196 ft | 476 kts | 334° |
| 2026-05-01 14:14 | 45.69160 | -4.78016 | 36199 ft | 476 kts | 334° |
| 2026-05-01 14:14 | 45.75292 | -4.81602 | 36202 ft | 477 kts | 334° |
| 2026-05-01 14:15 | 45.81435 | -4.85202 | 36203 ft | 477 kts | 334° |
| 2026-05-01 14:15 | 45.87578 | -4.88811 | 36203 ft | 477 kts | 334° |
| 2026-05-01 14:16 | 45.93726 | -4.92431 | 36205 ft | 478 kts | 334° |
| 2026-05-01 14:16 | 45.99877 | -4.96062 | 36211 ft | 478 kts | 334° |
| 2026-05-01 14:17 | 46.06028 | -4.99701 | 36210 ft | 478 kts | 334° |
| 2026-05-01 14:17 | 46.12184 | -5.03353 | 36210 ft | 479 kts | 334° |
| 2026-05-01 14:18 | 46.18343 | -5.07015 | 36211 ft | 479 kts | 333° |
| 2026-05-01 14:18 | 46.23463 | -5.10066 | 36206 ft | 479 kts | 333° |
| 2026-05-01 14:19 | 46.30660 | -5.14365 | 36213 ft | 479 kts | 333° |
| 2026-05-01 14:19 | 46.36820 | -5.18055 | 36210 ft | 479 kts | 333° |
| 2026-05-01 14:20 | 46.46058 | -5.23605 | 36219 ft | 479 kts | 333° |
| 2026-05-01 14:21 | 46.52216 | -5.27316 | 36218 ft | 479 kts | 333° |
| 2026-05-01 14:21 | 46.58371 | -5.31035 | 36220 ft | 479 kts | 333° |
| 2026-05-01 14:22 | 46.67614 | -5.36635 | 36218 ft | 480 kts | 333° |
| 2026-05-01 14:22 | 46.73736 | -5.40357 | 36221 ft | 480 kts | 333° |
| 2026-05-01 14:23 | 46.79894 | -5.44110 | 36216 ft | 480 kts | 333° |
| 2026-05-01 14:23 | 46.86053 | -5.47872 | 36220 ft | 480 kts | 333° |
| 2026-05-01 14:24 | 46.92219 | -5.51649 | 36223 ft | 480 kts | 333° |
| 2026-05-01 14:24 | 46.98389 | -5.55436 | 36219 ft | 481 kts | 333° |
| 2026-05-01 14:25 | 47.03515 | -5.58591 | 36225 ft | 481 kts | 333° |
| 2026-05-01 14:25 | 47.09684 | -5.62396 | 36221 ft | 481 kts | 333° |
| 2026-05-01 14:26 | 47.18950 | -5.68129 | 36223 ft | 482 kts | 333° |
| 2026-05-01 14:27 | 47.25129 | -5.71964 | 36222 ft | 482 kts | 333° |
| 2026-05-01 14:27 | 47.31311 | -5.75811 | 36222 ft | 482 kts | 333° |
| 2026-05-01 14:28 | 47.40587 | -5.81602 | 36218 ft | 483 kts | 333° |
| 2026-05-01 14:28 | 47.46776 | -5.85478 | 36219 ft | 483 kts | 333° |
| 2026-05-01 14:29 | 47.52969 | -5.89366 | 36219 ft | 483 kts | 333° |
| 2026-05-01 14:30 | 47.65359 | -5.97176 | 36220 ft | 484 kts | 332° |
| 2026-05-01 14:31 | 47.74612 | -6.03035 | 36218 ft | 485 kts | 332° |
| 2026-05-01 14:31 | 47.80826 | -6.06982 | 36214 ft | 485 kts | 332° |
| 2026-05-01 14:32 | 47.87035 | -6.10936 | 36213 ft | 486 kts | 332° |
| 2026-05-01 14:32 | 47.93245 | -6.14901 | 36210 ft | 486 kts | 332° |
| 2026-05-01 14:33 | 47.99460 | -6.18880 | 36212 ft | 486 kts | 332° |
| 2026-05-01 14:33 | 48.05683 | -6.22875 | 36209 ft | 486 kts | 332° |
| 2026-05-01 14:34 | 48.11902 | -6.26877 | 36210 ft | 487 kts | 332° |
| 2026-05-01 14:34 | 48.18122 | -6.30891 | 36214 ft | 487 kts | 332° |
| 2026-05-01 14:35 | 48.24342 | -6.34916 | 36206 ft | 487 kts | 332° |
| 2026-05-01 14:35 | 48.30563 | -6.38951 | 36202 ft | 487 kts | 332° |
| 2026-05-01 14:36 | 48.36783 | -6.42997 | 36204 ft | 487 kts | 332° |
| 2026-05-01 14:36 | 48.43004 | -6.47054 | 36206 ft | 487 kts | 332° |
| 2026-05-01 14:37 | 48.49225 | -6.51123 | 36207 ft | 487 kts | 332° |
| 2026-05-01 14:37 | 48.55445 | -6.55202 | 36202 ft | 488 kts | 332° |
| 2026-05-01 14:38 | 48.61666 | -6.59292 | 36203 ft | 488 kts | 332° |
| 2026-05-01 14:38 | 48.67885 | -6.63392 | 36201 ft | 488 kts | 332° |
| 2026-05-01 14:39 | 48.74104 | -6.67503 | 36202 ft | 488 kts | 332° |
| 2026-05-01 14:39 | 48.80326 | -6.71628 | 36201 ft | 488 kts | 332° |
| 2026-05-01 14:40 | 48.86502 | -6.75733 | 36201 ft | 488 kts | 332° |
| 2026-05-01 14:40 | 48.92723 | -6.79878 | 36199 ft | 488 kts | 332° |
| 2026-05-01 14:41 | 48.98942 | -6.84034 | 36197 ft | 488 kts | 332° |
| 2026-05-01 14:41 | 49.05157 | -6.88199 | 36197 ft | 488 kts | 332° |
| 2026-05-01 14:42 | 49.11374 | -6.92377 | 36194 ft | 488 kts | 332° |
| 2026-05-01 14:42 | 49.17592 | -6.96567 | 36193 ft | 488 kts | 332° |
| 2026-05-01 14:43 | 49.23803 | -7.00763 | 36189 ft | 488 kts | 332° |
| 2026-05-01 14:43 | 49.30019 | -7.04975 | 36188 ft | 488 kts | 332° |
| 2026-05-01 14:44 | 49.36233 | -7.09196 | 36189 ft | 489 kts | 332° |
| 2026-05-01 14:44 | 49.45558 | -7.15554 | 36183 ft | 489 kts | 332° |
| 2026-05-01 14:45 | 49.54880 | -7.21936 | 36184 ft | 489 kts | 332° |
| 2026-05-01 14:46 | 49.61094 | -7.26205 | 36181 ft | 489 kts | 332° |
| 2026-05-01 14:46 | 49.70415 | -7.32631 | 36179 ft | 489 kts | 332° |
| 2026-05-01 14:47 | 49.76627 | -7.36929 | 36174 ft | 489 kts | 332° |
| 2026-05-01 14:48 | 49.85944 | -7.43398 | 36168 ft | 489 kts | 332° |
| 2026-05-01 14:48 | 49.95215 | -7.49859 | 36158 ft | 479 kts | 332° |
| 2026-05-01 14:49 | 50.07235 | -7.58281 | 35734 ft | 473 kts | 332° |
| 2026-05-01 14:50 | 50.11178 | -7.61042 | 35207 ft | 467 kts | 334° |
| 2026-05-01 14:50 | 50.19698 | -7.64270 | 33530 ft | 475 kts | 347° |
| 2026-05-01 14:51 | 50.22939 | -7.65164 | 33090 ft | 471 kts | 348° |
| 2026-05-01 14:51 | 50.29351 | -7.66970 | 32205 ft | 464 kts | 347° |
| 2026-05-01 14:52 | 50.35654 | -7.68823 | 31370 ft | 458 kts | 347° |
| 2026-05-01 14:52 | 50.38773 | -7.69758 | 30959 ft | 455 kts | 347° |
| 2026-05-01 14:52 | 50.44964 | -7.71626 | 30111 ft | 451 kts | 347° |
| 2026-05-01 14:53 | 50.48038 | -7.72556 | 29632 ft | 448 kts | 347° |
| 2026-05-01 14:53 | 50.51091 | -7.73479 | 29184 ft | 445 kts | 347° |
| 2026-05-01 14:53 | 50.54120 | -7.74396 | 28747 ft | 442 kts | 347° |
| 2026-05-01 14:53 | 50.57125 | -7.75307 | 28326 ft | 438 kts | 347° |
| 2026-05-01 14:54 | 50.60111 | -7.76212 | 27905 ft | 435 kts | 347° |
| 2026-05-01 14:54 | 50.63070 | -7.77110 | 27491 ft | 432 kts | 347° |
| 2026-05-01 14:54 | 50.66012 | -7.78005 | 27077 ft | 429 kts | 347° |
| 2026-05-01 14:54 | 50.68938 | -7.78896 | 26669 ft | 426 kts | 347° |
| 2026-05-01 14:55 | 50.71842 | -7.79781 | 26266 ft | 424 kts | 347° |
| 2026-05-01 14:55 | 50.74729 | -7.80662 | 25859 ft | 421 kts | 347° |
| 2026-05-01 14:55 | 50.77598 | -7.81539 | 25457 ft | 419 kts | 346° |
| 2026-05-01 14:55 | 50.80452 | -7.82412 | 25054 ft | 417 kts | 346° |
| 2026-05-01 14:56 | 50.83298 | -7.83284 | 24630 ft | 416 kts | 346° |
| 2026-05-01 14:56 | 50.86130 | -7.84153 | 24228 ft | 414 kts | 346° |
| 2026-05-01 14:56 | 50.88954 | -7.85021 | 23813 ft | 413 kts | 346° |
| 2026-05-01 14:56 | 50.91767 | -7.85886 | 23359 ft | 411 kts | 346° |
| 2026-05-01 14:57 | 50.94570 | -7.86749 | 22921 ft | 408 kts | 346° |
| 2026-05-01 14:57 | 51.00106 | -7.88456 | 22103 ft | 402 kts | 346° |
| 2026-05-01 14:57 | 51.02845 | -7.89302 | 21705 ft | 399 kts | 346° |
| 2026-05-01 14:58 | 51.05564 | -7.90143 | 21314 ft | 396 kts | 346° |
| 2026-05-01 14:58 | 51.08263 | -7.90979 | 20923 ft | 394 kts | 346° |
| 2026-05-01 14:58 | 51.10941 | -7.91809 | 20544 ft | 391 kts | 346° |
| 2026-05-01 14:58 | 51.13601 | -7.92635 | 20173 ft | 389 kts | 346° |
| 2026-05-01 14:59 | 51.16215 | -7.93448 | 19784 ft | 386 kts | 346° |
| 2026-05-01 14:59 | 51.18844 | -7.94266 | 19406 ft | 384 kts | 346° |
| 2026-05-01 14:59 | 51.21463 | -7.95083 | 19015 ft | 382 kts | 346° |
| 2026-05-01 14:59 | 51.24069 | -7.95896 | 18632 ft | 381 kts | 346° |
| 2026-05-01 15:00 | 51.29242 | -7.97513 | 17807 ft | 376 kts | 346° |
| 2026-05-01 15:00 | 51.31803 | -7.98314 | 17412 ft | 374 kts | 346° |
| 2026-05-01 15:00 | 51.34347 | -7.99111 | 17027 ft | 371 kts | 346° |
| 2026-05-01 15:01 | 51.36871 | -7.99903 | 16649 ft | 368 kts | 346° |
| 2026-05-01 15:01 | 51.39374 | -8.00689 | 16283 ft | 365 kts | 346° |
| 2026-05-01 15:01 | 51.41861 | -8.01471 | 15921 ft | 363 kts | 346° |
| 2026-05-01 15:01 | 51.44329 | -8.02248 | 15564 ft | 360 kts | 346° |
| 2026-05-01 15:02 | 51.46782 | -8.03022 | 15200 ft | 358 kts | 346° |
| 2026-05-01 15:02 | 51.47610 | -8.03283 | 15077 ft | 358 kts | 346° |
| 2026-05-01 15:02 | 51.51652 | -8.04559 | 14478 ft | 355 kts | 346° |
| 2026-05-01 15:02 | 51.54066 | -8.05322 | 14113 ft | 353 kts | 346° |
| 2026-05-01 15:03 | 51.56467 | -8.06139 | 13724 ft | 351 kts | 340° |
| 2026-05-01 15:03 | 51.58726 | -8.07520 | 13351 ft | 345 kts | 332° |
| 2026-05-01 15:03 | 51.60901 | -8.09109 | 12995 ft | 342 kts | 331° |
| 2026-05-01 15:03 | 51.63049 | -8.10717 | 12624 ft | 340 kts | 331° |
| 2026-05-01 15:04 | 51.65190 | -8.12307 | 12257 ft | 338 kts | 332° |
| 2026-05-01 15:04 | 51.67337 | -8.13879 | 11767 ft | 341 kts | 332° |
| 2026-05-01 15:04 | 51.69509 | -8.15454 | 11277 ft | 343 kts | 332° |
| 2026-05-01 15:04 | 51.71696 | -8.17028 | 10785 ft | 345 kts | 333° |
| 2026-05-01 15:05 | 51.73889 | -8.18600 | 10307 ft | 346 kts | 333° |
| 2026-05-01 15:05 | 51.76091 | -8.20177 | 9806 ft | 347 kts | 333° |
| 2026-05-01 15:05 | 51.78266 | -8.21736 | 9286 ft | 347 kts | 333° |
| 2026-05-01 15:05 | 51.80501 | -8.23338 | 8754 ft | 347 kts | 333° |
| 2026-05-01 15:06 | 51.82675 | -8.24899 | 8256 ft | 346 kts | 333° |
| 2026-05-01 15:06 | 51.84904 | -8.26501 | 7737 ft | 345 kts | 333° |
| 2026-05-01 15:06 | 51.87064 | -8.28054 | 7252 ft | 344 kts | 333° |
| 2026-05-01 15:06 | 51.89217 | -8.29602 | 6746 ft | 333 kts | 333° |
| 2026-05-01 15:07 | 51.91305 | -8.31105 | 6231 ft | 324 kts | 333° |
| 2026-05-01 15:07 | 51.93336 | -8.32569 | 5710 ft | 316 kts | 334° |
| 2026-05-01 15:07 | 51.95321 | -8.34002 | 5192 ft | 309 kts | 333° |
| 2026-05-01 15:07 | 51.97262 | -8.35406 | 4683 ft | 303 kts | 333° |
| 2026-05-01 15:08 | 51.99169 | -8.36787 | 4162 ft | 298 kts | 333° |
| 2026-05-01 15:08 | 52.01047 | -8.38148 | 3646 ft | 294 kts | 334° |
| 2026-05-01 15:08 | 52.02906 | -8.39495 | 3175 ft | 291 kts | 334° |
| 2026-05-01 15:08 | 52.04719 | -8.40805 | 2917 ft | 281 kts | 334° |
| 2026-05-01 15:09 | 52.06513 | -8.42077 | 2347 ft | 284 kts | 334° |
| 2026-05-01 15:09 | 52.08264 | -8.43538 | 1907 ft | 276 kts | 323° |
| 2026-05-01 15:09 | 52.09440 | -8.45757 | 1925 ft | 250 kts | 286° |
| 2026-05-01 15:09 | 52.09520 | -8.48405 | 1923 ft | 229 kts | 245° |
| 2026-05-01 15:10 | 52.08582 | -8.50285 | 1908 ft | 210 kts | 204° |
| 2026-05-01 15:10 | 52.06136 | -8.52562 | 2059 ft | 205 kts | 223° |
| 2026-05-01 15:10 | 52.05136 | -8.54230 | 2079 ft | 207 kts | 221° |
| 2026-05-01 15:11 | 52.04129 | -8.55876 | 2191 ft | 204 kts | 224° |
| 2026-05-01 15:11 | 52.02414 | -8.59687 | 2005 ft | 208 kts | 207° |
| 2026-05-01 15:11 | 52.01065 | -8.60026 | 1937 ft | 196 kts | 165° |
| 2026-05-01 15:12 | 51.99937 | -8.58927 | 1952 ft | 184 kts | 151° |
| 2026-05-01 15:12 | 51.97758 | -8.57237 | 1944 ft | 169 kts | 161° |
| 2026-05-01 15:12 | 51.97036 | -8.56766 | 1947 ft | 169 kts | 162° |
| 2026-05-01 15:13 | 51.93778 | -8.54815 | 1958 ft | 153 kts | 163° |
| 2026-05-01 15:14 | 51.91991 | -8.53760 | 1896 ft | 133 kts | 163° |
| 2026-05-01 15:14 | 51.91134 | -8.53254 | 1711 ft | 128 kts | 163° |
| 2026-05-01 15:14 | 51.89468 | -8.52270 | 1401 ft | 130 kts | 164° |
| 2026-05-01 15:15 | 51.87811 | -8.51290 | 1066 ft | 128 kts | 162° |
| 2026-05-01 15:15 | 51.86129 | -8.50294 | 751 ft | 131 kts | 159° |
| 2026-05-01 15:16 | 51.84467 | -8.49299 | 480 ft | 112 kts | 160° |
| 2026-05-01 15:16 | 51.83458 | -8.48710 | 466 ft | 46 kts | 160° |
| 2026-05-01 15:17 | 51.83288 | -8.48585 | 470 ft | 7 kts | 318° |
| 2026-05-01 15:18 | 51.83636 | -8.48815 | 467 ft | 28 kts | 339° |
| 2026-05-01 15:18 | 51.83815 | -8.48924 | 465 ft | 27 kts | 339° |
| 2026-05-01 15:19 | 51.84294 | -8.49168 | 480 ft | 19 kts | 40° |
| 2026-05-01 15:19 | 51.84471 | -8.49027 | 485 ft | 19 kts | 341° |
| 2026-05-01 15:19 | 51.84596 | -8.49101 | 494 ft | 19 kts | 340° |
| 2026-05-01 15:20 | 51.84772 | -8.49148 | 502 ft | 8 kts | 68° |
| 2026-05-01 15:20 | 51.84793 | -8.49062 | 502 ft | 8 kts | 71° |
| 2026-05-01 15:20 | 51.84802 | -8.49023 | 502 ft | 3 kts | 70° |
| 2026-05-01 15:21 | 51.84802 | -8.49022 | 502 ft | 0 kts | 70° |